Terminal Aerodrome Forecast
Issued by NWS Mt. Holly, NJ

Home | Current Version | Previous Version | Text Only | Print | Product List | Glossary On
Versions: 1 2 3 4 5 6 7 8 9 10 11 12 13 14 15 16 17 18 19 20 21 22 23 24 25 26 27 28
618
FTUS41 KPHI 270523
TAFPHL
TAF
KPHL 270523Z 2706/2812 06008KT 2SM BR OVC004
     FM270800 09005KT 1SM BR OVC003
      TEMPO 2708/2711 3SM -SHRA BR SCT003 OVC010
     FM271200 12004KT 2SM BR OVC010
      TEMPO 2714/2717 21006KT 4SM -SHRA OVC020
     FM271700 23008KT P6SM BKN020 BKN200
     FM272100 23008KT P6SM BKN050
     FM280400 16004KT 5SM BR BKN020=

USA.gov is the U.S. government's official web portal to all federal, state and local government web resources and services.